Hanoverton, Ohio
Current Conditions -  °F | °C
As of 8:51 PM on Saturday 20 Dec 2014 (Local Time) from KCAK Reporting Station
Overcast Overcast  
Wind Chill: 29°   Ceiling: 2800
Heat Index: 29°   Visibility: 10mi
Dew Point: 21°   Wind: 0mph
Humidity: 72%   Direction: NA
Pressure: 30.26"   Gusts: NA
Location:  40.75°N, 80.94°W
Report Text: KCAK 210151Z 00000KT 10SM OVC028 M02/M06 A3026 RMK AO2 SLP263 T10171061
Loading
Personal Weather Stations






























Interactive Weather Map New forecast layout! Learn more

10-Day Weather Forecast

Advertisements
Track Severe Weather on mobile